Pagrindinis puslapis
METAR-TAF:

METAR-TAF

Oro uostai :

Lemnos, Graikija

platuma: 39-55N, ilguma: 025-14E, Aukštis: 5 m

Dabartinis oras

Ataskaita buvo paskelbta 34 minutes, ne 14:20 UTC
Vėjas 6 kt iš Šiaurės Rytų
Temperatūra 20°C
Drėgmė 40%
Slėgis 1008 hPa
Matomumas 10 km arba daugiau
nėra debesų žemiau 1500 m ir nėra kamuolinių lietaus debesų

METAR: LGLM 121420Z 04006KT CAVOK 20/06 Q1008

Laikas: 17:54 (14:54 UTC)

Prognozė

Ataskaita buvo paskelbta 54 minutes, ne 14:00 UTC
Prognozė galioja nuo 12 metu 15 UTC su 12 metu 24 UTC
Vėjas 8 kt iš Rytų/Pietryčių
Matomumas 10 km arba daugiau
Mažai debesys ne aukštis 2500 ft

TAF: LGLM 121400Z 1215/1224 12008KT 9999 FEW025

Orai ataskaitas ir orų prognozės (METAR, TAF).

turimą stotys yra geltonos ir raudonos taškus žemėlapyje.

Perkelti pele per norėdami pamatyti stoties vardą.

Tada spustelėkite, norėdami matyti oro stebėjimo ir prognozės.

Norėdami pakeisti žemėlapį: spustelėkite ant žalios mygtukų su juodo kryžiaus žemyn,; žalią mygtuką su brūkšneliu, jei norite nutolinti; arba žalių rodyklių gretimoms žemėlapius.


METAR-TAF: